sensor_id;sensor_type;location;lat;lon;timestamp;P1;P2;P0
54021;PMS7003;39936;51.058;17.220;2024-03-08T00:03:00;19;19;19
54021;PMS7003;39936;51.058;17.220;2024-03-08T00:06:26;24;24;23
54021;PMS7003;39936;51.058;17.220;2024-03-08T00:09:46;21;21;21
54021;PMS7003;39936;51.058;17.220;2024-03-08T00:13:08;33;31;28
54021;PMS7003;39936;51.058;17.220;2024-03-08T00:16:28;23;23;23
54021;PMS7003;39936;51.058;17.220;2024-03-08T00:19:49;23;23;23
54021;PMS7003;39936;51.058;17.220;2024-03-08T00:23:10;27;27;27
54021;PMS7003;39936;51.058;17.220;2024-03-08T00:26:32;23;23;23
54021;PMS7003;39936;51.058;17.220;2024-03-08T00:29:49;33;33;29
54021;PMS7003;39936;51.058;17.220;2024-03-08T00:33:15;28;27;25
54021;PMS7003;39936;51.058;17.220;2024-03-08T00:36:40;31;30;27
54021;PMS7003;39936;51.058;17.220;2024-03-08T00:40:07;31;28;25
54021;PMS7003;39936;51.058;17.220;2024-03-08T00:43:33;30;28;22
54021;PMS7003;39936;51.058;17.220;2024-03-08T00:46:54;22;22;22
54021;PMS7003;39936;51.058;17.220;2024-03-08T00:50:22;22;22;21
54021;PMS7003;39936;51.058;17.220;2024-03-08T00:53:48;14;14;13
54021;PMS7003;39936;51.058;17.220;2024-03-08T00:57:09;13;13;13
54021;PMS7003;39936;51.058;17.220;2024-03-08T01:00:27;36;34;29
54021;PMS7003;39936;51.058;17.220;2024-03-08T01:03:48;29;29;27
54021;PMS7003;39936;51.058;17.220;2024-03-08T01:07:09;34;34;29
54021;PMS7003;39936;51.058;17.220;2024-03-08T01:10:31;21;21;21
54021;PMS7003;39936;51.058;17.220;2024-03-08T01:13:48;12;12;12
54021;PMS7003;39936;51.058;17.220;2024-03-08T01:17:17;20;20;18
54021;PMS7003;39936;51.058;17.220;2024-03-08T01:20:39;16;16;15
54021;PMS7003;39936;51.058;17.220;2024-03-08T01:24:00;19;18;16
54021;PMS7003;39936;51.058;17.220;2024-03-08T01:27:26;19;19;19
54021;PMS7003;39936;51.058;17.220;2024-03-08T01:30:43;15;15;15
54021;PMS7003;39936;51.058;17.220;2024-03-08T01:34:05;39;38;33
54021;PMS7003;39936;51.058;17.220;2024-03-08T01:37:26;14;14;14
54021;PMS7003;39936;51.058;17.220;2024-03-08T01:40:45;12;12;11
54021;PMS7003;39936;51.058;17.220;2024-03-08T01:44:07;9;9;9
54021;PMS7003;39936;51.058;17.220;2024-03-08T01:47:35;14;14;14
54021;PMS7003;39936;51.058;17.220;2024-03-08T01:50:57;16;16;16
54021;PMS7003;39936;51.058;17.220;2024-03-08T01:54:20;16;16;15
54021;PMS7003;39936;51.058;17.220;2024-03-08T01:57:38;14;13;12
54021;PMS7003;39936;51.058;17.220;2024-03-08T02:00:58;6;6;6
54021;PMS7003;39936;51.058;17.220;2024-03-08T02:04:24;13;13;12
54021;PMS7003;39936;51.058;17.220;2024-03-08T02:07:45;27;27;26
54021;PMS7003;39936;51.058;17.220;2024-03-08T02:11:07;20;20;20
54021;PMS7003;39936;51.058;17.220;2024-03-08T02:14:29;12;12;12
54021;PMS7003;39936;51.058;17.220;2024-03-08T02:17:46;12;12;11
54021;PMS7003;39936;51.058;17.220;2024-03-08T02:21:07;15;15;15
54021;PMS7003;39936;51.058;17.220;2024-03-08T02:24:28;10;10;10
54021;PMS7003;39936;51.058;17.220;2024-03-08T02:27:50;9;9;9
54021;PMS7003;39936;51.058;17.220;2024-03-08T02:31:20;16;16;14
54021;PMS7003;39936;51.058;17.220;2024-03-08T02:34:42;17;16;15
54021;PMS7003;39936;51.058;17.220;2024-03-08T02:38:06;2;2;2
54021;PMS7003;39936;51.058;17.220;2024-03-08T02:41:28;7;7;7
54021;PMS7003;39936;51.058;17.220;2024-03-08T02:44:51;11;11;11
54021;PMS7003;39936;51.058;17.220;2024-03-08T02:48:16;8;8;8
54021;PMS7003;39936;51.058;17.220;2024-03-08T02:51:36;3;3;3
54021;PMS7003;39936;51.058;17.220;2024-03-08T02:55:00;13;13;13
54021;PMS7003;39936;51.058;17.220;2024-03-08T02:58:27;9;9;8
54021;PMS7003;39936;51.058;17.220;2024-03-08T03:01:59;6;6;6
54021;PMS7003;39936;51.058;17.220;2024-03-08T03:05:17;6;6;6
54021;PMS7003;39936;51.058;17.220;2024-03-08T03:08:40;3;3;3
54021;PMS7003;39936;51.058;17.220;2024-03-08T03:12:04;16;16;14
54021;PMS7003;39936;51.058;17.220;2024-03-08T03:15:28;13;12;12
54021;PMS7003;39936;51.058;17.220;2024-03-08T03:18:46;13;13;13
54021;PMS7003;39936;51.058;17.220;2024-03-08T03:22:08;10;10;10
54021;PMS7003;39936;51.058;17.220;2024-03-08T03:25:34;22;22;18
54021;PMS7003;39936;51.058;17.220;2024-03-08T03:29:08;13;13;13
54021;PMS7003;39936;51.058;17.220;2024-03-08T03:32:27;7;7;7
54021;PMS7003;39936;51.058;17.220;2024-03-08T03:35:48;5;5;5
54021;PMS7003;39936;51.058;17.220;2024-03-08T03:39:15;9;9;8
54021;PMS7003;39936;51.058;17.220;2024-03-08T03:42:40;15;15;15
54021;PMS7003;39936;51.058;17.220;2024-03-08T03:46:05;13;13;12
54021;PMS7003;39936;51.058;17.220;2024-03-08T03:49:33;11;11;10
54021;PMS7003;39936;51.058;17.220;2024-03-08T03:52:56;16;16;15
54021;PMS7003;39936;51.058;17.220;2024-03-08T03:56:18;19;19;17
54021;PMS7003;39936;51.058;17.220;2024-03-08T03:59:44;10;9;8
54021;PMS7003;39936;51.058;17.220;2024-03-08T04:03:06;2;2;2
54021;PMS7003;39936;51.058;17.220;2024-03-08T04:06:32;7;7;6
54021;PMS7003;39936;51.058;17.220;2024-03-08T04:09:50;11;11;11
54021;PMS7003;39936;51.058;17.220;2024-03-08T04:13:15;1;1;1
54021;PMS7003;39936;51.058;17.220;2024-03-08T04:16:32;7;7;7
54021;PMS7003;39936;51.058;17.220;2024-03-08T04:19:53;5;5;5
54021;PMS7003;39936;51.058;17.220;2024-03-08T04:23:10;5;5;5
54021;PMS7003;39936;51.058;17.220;2024-03-08T04:26:36;25;25;23
54021;PMS7003;39936;51.058;17.220;2024-03-08T04:29:57;18;13;8
54021;PMS7003;39936;51.058;17.220;2024-03-08T04:33:15;0;0;0
54021;PMS7003;39936;51.058;17.220;2024-03-08T04:36:44;13;13;13
54021;PMS7003;39936;51.058;17.220;2024-03-08T04:40:14;18;18;17
54021;PMS7003;39936;51.058;17.220;2024-03-08T04:43:31;27;27;25
54021;PMS7003;39936;51.058;17.220;2024-03-08T04:46:53;15;15;14
54021;PMS7003;39936;51.058;17.220;2024-03-08T04:50:14;23;23;21
54021;PMS7003;39936;51.058;17.220;2024-03-08T04:53:35;0;0;0
54021;PMS7003;39936;51.058;17.220;2024-03-08T04:56:57;1;1;1
54021;PMS7003;39936;51.058;17.220;2024-03-08T05:00:27;0;0;0
54021;PMS7003;39936;51.058;17.220;2024-03-08T05:03:53;3;3;3
54021;PMS7003;39936;51.058;17.220;2024-03-08T05:07:19;8;7;7
54021;PMS7003;39936;51.058;17.220;2024-03-08T05:10:40;5;5;4
54021;PMS7003;39936;51.058;17.220;2024-03-08T05:14:05;0;0;0
54021;PMS7003;39936;51.058;17.220;2024-03-08T05:17:26;12;12;12
54021;PMS7003;39936;51.058;17.220;2024-03-08T05:20:45;17;17;16
54021;PMS7003;39936;51.058;17.220;2024-03-08T05:24:13;9;9;9
54021;PMS7003;39936;51.058;17.220;2024-03-08T05:27:39;19;19;19
54021;PMS7003;39936;51.058;17.220;2024-03-08T05:31:03;15;15;15
54021;PMS7003;39936;51.058;17.220;2024-03-08T05:34:24;6;6;6
54021;PMS7003;39936;51.058;17.220;2024-03-08T05:37:48;1;1;1
54021;PMS7003;39936;51.058;17.220;2024-03-08T05:41:05;2;2;2
54021;PMS7003;39936;51.058;17.220;2024-03-08T05:44:35;25;23;22
54021;PMS7003;39936;51.058;17.220;2024-03-08T05:47:59;4;4;4
54021;PMS7003;39936;51.058;17.220;2024-03-08T05:51:25;28;28;26
54021;PMS7003;39936;51.058;17.220;2024-03-08T05:54:42;31;28;24
54021;PMS7003;39936;51.058;17.220;2024-03-08T05:58:06;74;61;48
54021;PMS7003;39936;51.058;17.220;2024-03-08T06:01:26;30;28;22
54021;PMS7003;39936;51.058;17.220;2024-03-08T06:04:55;88;84;72
54021;PMS7003;39936;51.058;17.220;2024-03-08T06:08:24;32;29;25
54021;PMS7003;39936;51.058;17.220;2024-03-08T06:11:46;25;24;22
54021;PMS7003;39936;51.058;17.220;2024-03-08T06:15:15;11;11;11
54021;PMS7003;39936;51.058;17.220;2024-03-08T06:18:39;6;6;6
54021;PMS7003;39936;51.058;17.220;2024-03-08T06:22:01;10;10;9
54021;PMS7003;39936;51.058;17.220;2024-03-08T06:25:25;23;22;21
54021;PMS7003;39936;51.058;17.220;2024-03-08T06:28:46;35;35;32
54021;PMS7003;39936;51.058;17.220;2024-03-08T06:32:07;23;23;22
54021;PMS7003;39936;51.058;17.220;2024-03-08T06:35:37;15;15;15
54021;PMS7003;39936;51.058;17.220;2024-03-08T06:39:01;10;10;10
54021;PMS7003;39936;51.058;17.220;2024-03-08T06:42:30;38;35;33
54021;PMS7003;39936;51.058;17.220;2024-03-08T06:45:58;24;24;21
54021;PMS7003;39936;51.058;17.220;2024-03-08T06:49:15;33;32;29
54021;PMS7003;39936;51.058;17.220;2024-03-08T06:52:41;39;37;32
54021;PMS7003;39936;51.058;17.220;2024-03-08T06:56:06;25;24;22
54021;PMS7003;39936;51.058;17.220;2024-03-08T06:59:28;32;29;26
54021;PMS7003;39936;51.058;17.220;2024-03-08T07:02:52;30;29;28
54021;PMS7003;39936;51.058;17.220;2024-03-08T07:06:10;33;33;30
54021;PMS7003;39936;51.058;17.220;2024-03-08T07:09:33;15;15;14
54021;PMS7003;39936;51.058;17.220;2024-03-08T07:12:55;30;28;27
54021;PMS7003;39936;51.058;17.220;2024-03-08T07:16:20;21;21;20
54021;PMS7003;39936;51.058;17.220;2024-03-08T07:19:42;22;22;21
54021;PMS7003;39936;51.058;17.220;2024-03-08T07:23:04;26;25;24
54021;PMS7003;39936;51.058;17.220;2024-03-08T07:26:29;19;19;19
54021;PMS7003;39936;51.058;17.220;2024-03-08T07:29:59;15;15;15
54021;PMS7003;39936;51.058;17.220;2024-03-08T07:33:26;13;13;13
54021;PMS7003;39936;51.058;17.220;2024-03-08T07:36:43;6;6;6
54021;PMS7003;39936;51.058;17.220;2024-03-08T07:40:04;10;10;10
54021;PMS7003;39936;51.058;17.220;2024-03-08T07:43:35;11;11;11
54021;PMS7003;39936;51.058;17.220;2024-03-08T07:47:01;13;13;12
54021;PMS7003;39936;51.058;17.220;2024-03-08T07:50:27;9;9;9
54021;PMS7003;39936;51.058;17.220;2024-03-08T07:53:46;12;12;11
54021;PMS7003;39936;51.058;17.220;2024-03-08T07:57:12;9;9;9
54021;PMS7003;39936;51.058;17.220;2024-03-08T08:00:33;6;6;6
54021;PMS7003;39936;51.058;17.220;2024-03-08T08:03:59;4;4;3
54021;PMS7003;39936;51.058;17.220;2024-03-08T08:07:24;6;6;6
54021;PMS7003;39936;51.058;17.220;2024-03-08T08:10:38;9;9;8
54021;PMS7003;39936;51.058;17.220;2024-03-08T08:14:03;3;3;3
54021;PMS7003;39936;51.058;17.220;2024-03-08T08:17:24;2;1;1
54021;PMS7003;39936;51.058;17.220;2024-03-08T08:20:44;3;3;3
54021;PMS7003;39936;51.058;17.220;2024-03-08T08:24:03;0;0;0
54021;PMS7003;39936;51.058;17.220;2024-03-08T08:27:45;23;20;19
54021;PMS7003;39936;51.058;17.220;2024-03-08T08:31:09;23;20;18
54021;PMS7003;39936;51.058;17.220;2024-03-08T08:34:27;1;1;1
54021;PMS7003;39936;51.058;17.220;2024-03-08T08:37:50;50;44;40
54021;PMS7003;39936;51.058;17.220;2024-03-08T08:41:12;34;32;28
54021;PMS7003;39936;51.058;17.220;2024-03-08T08:44:37;30;28;25
54021;PMS7003;39936;51.058;17.220;2024-03-08T08:48:03;27;26;24
54021;PMS7003;39936;51.058;17.220;2024-03-08T08:51:29;31;30;27
54021;PMS7003;39936;51.058;17.220;2024-03-08T08:54:53;24;24;22
54021;PMS7003;39936;51.058;17.220;2024-03-08T08:58:13;26;26;25
54021;PMS7003;39936;51.058;17.220;2024-03-08T09:01:35;26;25;22
54021;PMS7003;39936;51.058;17.220;2024-03-08T09:04:58;21;21;18
54021;PMS7003;39936;51.058;17.220;2024-03-08T09:08:17;21;20;18
54021;PMS7003;39936;51.058;17.220;2024-03-08T09:11:42;9;9;8
54021;PMS7003;39936;51.058;17.220;2024-03-08T09:15:05;12;10;9
54021;PMS7003;39936;51.058;17.220;2024-03-08T09:18:31;9;9;7
54021;PMS7003;39936;51.058;17.220;2024-03-08T09:21:54;1;1;1
54021;PMS7003;39936;51.058;17.220;2024-03-08T09:25:12;3;3;3
54021;PMS7003;39936;51.058;17.220;2024-03-08T09:28:33;1;1;1
54021;PMS7003;39936;51.058;17.220;2024-03-08T09:31:55;1;1;1
54021;PMS7003;39936;51.058;17.220;2024-03-08T09:35:13;7;6;5
54021;PMS7003;39936;51.058;17.220;2024-03-08T09:38:31;9;9;9
54021;PMS7003;39936;51.058;17.220;2024-03-08T09:41:53;9;9;9
54021;PMS7003;39936;51.058;17.220;2024-03-08T09:45:14;4;4;3
54021;PMS7003;39936;51.058;17.220;2024-03-08T09:48:37;15;14;12
54021;PMS7003;39936;51.058;17.220;2024-03-08T09:51:59;5;5;4
54021;PMS7003;39936;51.058;17.220;2024-03-08T09:55:32;6;6;5
54021;PMS7003;39936;51.058;17.220;2024-03-08T09:59:04;5;4;4
54021;PMS7003;39936;51.058;17.220;2024-03-08T10:02:43;15;13;11
54021;PMS7003;39936;51.058;17.220;2024-03-08T10:06:13;19;18;18
54021;PMS7003;39936;51.058;17.220;2024-03-08T10:09:32;14;14;13
54021;PMS7003;39936;51.058;17.220;2024-03-08T10:12:58;11;11;10
54021;PMS7003;39936;51.058;17.220;2024-03-08T10:16:25;6;6;6
54021;PMS7003;39936;51.058;17.220;2024-03-08T10:19:58;5;5;5
54021;PMS7003;39936;51.058;17.220;2024-03-08T10:23:29;6;6;6
54021;PMS7003;39936;51.058;17.220;2024-03-08T10:26:55;5;5;5
54021;PMS7003;39936;51.058;17.220;2024-03-08T10:30:28;8;8;8
54021;PMS7003;39936;51.058;17.220;2024-03-08T10:33:48;8;8;8
54021;PMS7003;39936;51.058;17.220;2024-03-08T10:37:14;7;7;7
54021;PMS7003;39936;51.058;17.220;2024-03-08T10:40:41;6;6;6
54021;PMS7003;39936;51.058;17.220;2024-03-08T10:47:33;13;9;6
54021;PMS7003;39936;51.058;17.220;2024-03-08T10:51:02;15;14;13
54021;PMS7003;39936;51.058;17.220;2024-03-08T10:54:23;8;8;7
54021;PMS7003;39936;51.058;17.220;2024-03-08T10:57:50;29;28;26
54021;PMS7003;39936;51.058;17.220;2024-03-08T11:01:21;11;11;11
54021;PMS7003;39936;51.058;17.220;2024-03-08T11:04:45;8;8;8
54021;PMS7003;39936;51.058;17.220;2024-03-08T11:11:38;6;6;5
54021;PMS7003;39936;51.058;17.220;2024-03-08T11:15:12;9;9;9
54021;PMS7003;39936;51.058;17.220;2024-03-08T11:18:33;6;4;3
54021;PMS7003;39936;51.058;17.220;2024-03-08T11:21:59;30;26;23
54021;PMS7003;39936;51.058;17.220;2024-03-08T11:28:54;2;2;2
54021;PMS7003;39936;51.058;17.220;2024-03-08T11:32:15;15;15;15
54021;PMS7003;39936;51.058;17.220;2024-03-08T11:35:42;19;17;17
54021;PMS7003;39936;51.058;17.220;2024-03-08T11:39:06;15;15;15
54021;PMS7003;39936;51.058;17.220;2024-03-08T11:42:36;13;13;13
54021;PMS7003;39936;51.058;17.220;2024-03-08T11:49:27;32;32;28
54021;PMS7003;39936;51.058;17.220;2024-03-08T11:52:59;22;21;20
54021;PMS7003;39936;51.058;17.220;2024-03-08T11:56:24;14;14;13
54021;PMS7003;39936;51.058;17.220;2024-03-08T11:59:49;9;9;8
54021;PMS7003;39936;51.058;17.220;2024-03-08T12:03:15;18;18;17
54021;PMS7003;39936;51.058;17.220;2024-03-08T12:06:39;24;24;23
54021;PMS7003;39936;51.058;17.220;2024-03-08T12:13:37;9;9;9
54021;PMS7003;39936;51.058;17.220;2024-03-08T12:17:03;17;17;17
54021;PMS7003;39936;51.058;17.220;2024-03-08T12:20:30;13;13;13
54021;PMS7003;39936;51.058;17.220;2024-03-08T12:23:48;11;11;11
54021;PMS7003;39936;51.058;17.220;2024-03-08T12:27:18;24;24;23
54021;PMS7003;39936;51.058;17.220;2024-03-08T12:30:46;36;33;25
54021;PMS7003;39936;51.058;17.220;2024-03-08T12:34:05;20;20;20
54021;PMS7003;39936;51.058;17.220;2024-03-08T12:37:31;22;22;21
54021;PMS7003;39936;51.058;17.220;2024-03-08T12:40:49;49;46;45
54021;PMS7003;39936;51.058;17.220;2024-03-08T12:44:11;56;54;53
54021;PMS7003;39936;51.058;17.220;2024-03-08T12:47:38;147;146;145
54021;PMS7003;39936;51.058;17.220;2024-03-08T12:51:06;79;78;76
54021;PMS7003;39936;51.058;17.220;2024-03-08T12:54:33;28;27;25
54021;PMS7003;39936;51.058;17.220;2024-03-08T12:57:54;18;18;18
54021;PMS7003;39936;51.058;17.220;2024-03-08T13:01:18;7;7;7
54021;PMS7003;39936;51.058;17.220;2024-03-08T13:04:39;19;18;18
54021;PMS7003;39936;51.058;17.220;2024-03-08T13:08:03;19;19;19
54021;PMS7003;39936;51.058;17.220;2024-03-08T13:11:33;120;117;115
54021;PMS7003;39936;51.058;17.220;2024-03-08T13:15:00;132;127;124
54021;PMS7003;39936;51.058;17.220;2024-03-08T13:18:28;135;131;129
54021;PMS7003;39936;51.058;17.220;2024-03-08T13:21:46;218;218;218
54021;PMS7003;39936;51.058;17.220;2024-03-08T13:25:08;168;166;164
54021;PMS7003;39936;51.058;17.220;2024-03-08T13:28:32;144;143;141
54021;PMS7003;39936;51.058;17.220;2024-03-08T13:31:57;40;37;35
54021;PMS7003;39936;51.058;17.220;2024-03-08T13:35:22;64;60;56
54021;PMS7003;39936;51.058;17.220;2024-03-08T13:38:45;114;107;105
54021;PMS7003;39936;51.058;17.220;2024-03-08T13:42:05;90;87;83
54021;PMS7003;39936;51.058;17.220;2024-03-08T13:45:34;103;97;95
54021;PMS7003;39936;51.058;17.220;2024-03-08T13:48:57;92;88;84
54021;PMS7003;39936;51.058;17.220;2024-03-08T13:52:21;179;179;179
54021;PMS7003;39936;51.058;17.220;2024-03-08T13:55:48;96;91;89
54021;PMS7003;39936;51.058;17.220;2024-03-08T13:59:14;68;66;62
54021;PMS7003;39936;51.058;17.220;2024-03-08T14:02:34;31;30;27
54021;PMS7003;39936;51.058;17.220;2024-03-08T14:05:52;14;14;14
54021;PMS7003;39936;51.058;17.220;2024-03-08T14:09:12;35;33;30
54021;PMS7003;39936;51.058;17.220;2024-03-08T14:12:29;43;40;35
54021;PMS7003;39936;51.058;17.220;2024-03-08T14:15:47;55;52;48
54021;PMS7003;39936;51.058;17.220;2024-03-08T14:19:13;29;28;26
54021;PMS7003;39936;51.058;17.220;2024-03-08T14:22:35;22;19;19
54021;PMS7003;39936;51.058;17.220;2024-03-08T14:25:59;28;23;18
54021;PMS7003;39936;51.058;17.220;2024-03-08T14:29:17;59;54;50
54021;PMS7003;39936;51.058;17.220;2024-03-08T14:32:35;26;26;24
54021;PMS7003;39936;51.058;17.220;2024-03-08T14:35:56;23;23;21
54021;PMS7003;39936;51.058;17.220;2024-03-08T14:39:15;21;21;20
54021;PMS7003;39936;51.058;17.220;2024-03-08T14:42:45;36;35;31
54021;PMS7003;39936;51.058;17.220;2024-03-08T14:46:06;35;35;31
54021;PMS7003;39936;51.058;17.220;2024-03-08T14:49:24;25;25;23
54021;PMS7003;39936;51.058;17.220;2024-03-08T14:52:40;41;40;35
54021;PMS7003;39936;51.058;17.220;2024-03-08T14:55:58;33;32;29
54021;PMS7003;39936;51.058;17.220;2024-03-08T14:59:18;21;21;19
54021;PMS7003;39936;51.058;17.220;2024-03-08T15:02:39;33;32;29
54021;PMS7003;39936;51.058;17.220;2024-03-08T15:05:56;13;13;13
54021;PMS7003;39936;51.058;17.220;2024-03-08T15:09:18;35;32;29
54021;PMS7003;39936;51.058;17.220;2024-03-08T15:12:40;57;54;51
54021;PMS7003;39936;51.058;17.220;2024-03-08T15:16:06;220;220;219
54021;PMS7003;39936;51.058;17.220;2024-03-08T15:19:37;129;127;124
54021;PMS7003;39936;51.058;17.220;2024-03-08T15:23:00;117;112;110
54021;PMS7003;39936;51.058;17.220;2024-03-08T15:26:24;142;142;141
54021;PMS7003;39936;51.058;17.220;2024-03-08T15:29:49;137;134;131
54021;PMS7003;39936;51.058;17.220;2024-03-08T15:33:13;117;114;113
54021;PMS7003;39936;51.058;17.220;2024-03-08T15:36:44;114;109;107
54021;PMS7003;39936;51.058;17.220;2024-03-08T15:40:06;195;195;194
54021;PMS7003;39936;51.058;17.220;2024-03-08T15:43:35;138;135;133
54021;PMS7003;39936;51.058;17.220;2024-03-08T15:46:55;28;27;25
54021;PMS7003;39936;51.058;17.220;2024-03-08T15:50:26;21;21;21
54021;PMS7003;39936;51.058;17.220;2024-03-08T15:53:47;100;99;97
54021;PMS7003;39936;51.058;17.220;2024-03-08T15:57:22;102;100;97
54021;PMS7003;39936;51.058;17.220;2024-03-08T16:00:44;107;104;100
54021;PMS7003;39936;51.058;17.220;2024-03-08T16:04:12;106;102;99
54021;PMS7003;39936;51.058;17.220;2024-03-08T16:07:46;72;69;65
54021;PMS7003;39936;51.058;17.220;2024-03-08T16:11:19;59;52;43
54021;PMS7003;39936;51.058;17.220;2024-03-08T16:14:38;43;41;38
54021;PMS7003;39936;51.058;17.220;2024-03-08T16:18:00;60;55;51
54021;PMS7003;39936;51.058;17.220;2024-03-08T16:21:26;66;63;58
54021;PMS7003;39936;51.058;17.220;2024-03-08T16:24:45;36;36;32
54021;PMS7003;39936;51.058;17.220;2024-03-08T16:28:12;27;27;25
54021;PMS7003;39936;51.058;17.220;2024-03-08T16:31:43;42;42;38
54021;PMS7003;39936;51.058;17.220;2024-03-08T16:35:21;44;42;36
54021;PMS7003;39936;51.058;17.220;2024-03-08T16:38:47;35;34;30
54021;PMS7003;39936;51.058;17.220;2024-03-08T16:42:12;53;47;40
54021;PMS7003;39936;51.058;17.220;2024-03-08T16:45:37;49;45;38
54021;PMS7003;39936;51.058;17.220;2024-03-08T16:49:00;43;42;36
54021;PMS7003;39936;51.058;17.220;2024-03-08T16:52:24;47;44;38
54021;PMS7003;39936;51.058;17.220;2024-03-08T16:55:52;58;51;42
54021;PMS7003;39936;51.058;17.220;2024-03-08T16:59:22;60;53;44
54021;PMS7003;39936;51.058;17.220;2024-03-08T17:02:39;59;52;43
54021;PMS7003;39936;51.058;17.220;2024-03-08T17:05:58;50;46;39
54021;PMS7003;39936;51.058;17.220;2024-03-08T17:09:31;79;74;70
54021;PMS7003;39936;51.058;17.220;2024-03-08T17:12:56;52;47;40
54021;PMS7003;39936;51.058;17.220;2024-03-08T17:16:16;58;52;43
54021;PMS7003;39936;51.058;17.220;2024-03-08T17:19:44;57;50;42
54021;PMS7003;39936;51.058;17.220;2024-03-08T17:23:13;64;56;47
54021;PMS7003;39936;51.058;17.220;2024-03-08T17:26:35;67;57;44
54021;PMS7003;39936;51.058;17.220;2024-03-08T17:30:00;78;67;57
54021;PMS7003;39936;51.058;17.220;2024-03-08T17:33:36;80;70;62
54021;PMS7003;39936;51.058;17.220;2024-03-08T17:37:00;64;57;53
54021;PMS7003;39936;51.058;17.220;2024-03-08T17:40:29;51;46;41
54021;PMS7003;39936;51.058;17.220;2024-03-08T17:43:51;64;55;47
54021;PMS7003;39936;51.058;17.220;2024-03-08T17:47:28;56;50;41
54021;PMS7003;39936;51.058;17.220;2024-03-08T17:51:19;50;45;38
54021;PMS7003;39936;51.058;17.220;2024-03-08T17:54:55;52;48;40
54021;PMS7003;39936;51.058;17.220;2024-03-08T17:58:22;47;42;35
54021;PMS7003;39936;51.058;17.220;2024-03-08T18:01:53;52;47;40
54021;PMS7003;39936;51.058;17.220;2024-03-08T18:05:22;39;37;33
54021;PMS7003;39936;51.058;17.220;2024-03-08T18:08:58;37;36;32
54021;PMS7003;39936;51.058;17.220;2024-03-08T18:12:53;36;36;31
54021;PMS7003;39936;51.058;17.220;2024-03-08T18:16:35;29;29;27
54021;PMS7003;39936;51.058;17.220;2024-03-08T18:19:54;21;21;20
54021;PMS7003;39936;51.058;17.220;2024-03-08T18:23:19;33;32;25
54021;PMS7003;39936;51.058;17.220;2024-03-08T18:26:37;27;27;25
54021;PMS7003;39936;51.058;17.220;2024-03-08T18:30:06;20;20;18
54021;PMS7003;39936;51.058;17.220;2024-03-08T18:33:39;20;19;17
54021;PMS7003;39936;51.058;17.220;2024-03-08T18:37:05;3;3;3
54021;PMS7003;39936;51.058;17.220;2024-03-08T18:40:31;6;5;5
54021;PMS7003;39936;51.058;17.220;2024-03-08T18:43:55;11;11;8
54021;PMS7003;39936;51.058;17.220;2024-03-08T18:47:20;4;4;4
54021;PMS7003;39936;51.058;17.220;2024-03-08T18:50:39;5;5;5
54021;PMS7003;39936;51.058;17.220;2024-03-08T18:54:05;21;21;20
54021;PMS7003;39936;51.058;17.220;2024-03-08T18:57:36;16;15;12
54021;PMS7003;39936;51.058;17.220;2024-03-08T19:01:02;48;48;47
54021;PMS7003;39936;51.058;17.220;2024-03-08T19:04:23;60;60;58
54021;PMS7003;39936;51.058;17.220;2024-03-08T19:07:47;18;18;17
54021;PMS7003;39936;51.058;17.220;2024-03-08T19:11:10;45;42;40
54021;PMS7003;39936;51.058;17.220;2024-03-08T19:14:36;47;43;42
54021;PMS7003;39936;51.058;17.220;2024-03-08T19:18:01;50;48;47
54021;PMS7003;39936;51.058;17.220;2024-03-08T19:21:28;78;74;71
54021;PMS7003;39936;51.058;17.220;2024-03-08T19:25:04;79;75;73
54021;PMS7003;39936;51.058;17.220;2024-03-08T19:28:32;65;58;54
54021;PMS7003;39936;51.058;17.220;2024-03-08T19:31:55;0;0;0
54021;PMS7003;39936;51.058;17.220;2024-03-08T19:35:17;1;1;1
54021;PMS7003;39936;51.058;17.220;2024-03-08T19:38:43;0;0;0
54021;PMS7003;39936;51.058;17.220;2024-03-08T19:42:07;4;4;4
54021;PMS7003;39936;51.058;17.220;2024-03-08T19:45:28;4;4;3
54021;PMS7003;39936;51.058;17.220;2024-03-08T19:48:49;3;3;2
54021;PMS7003;39936;51.058;17.220;2024-03-08T19:52:10;4;4;4
54021;PMS7003;39936;51.058;17.220;2024-03-08T19:55:30;1;1;1
54021;PMS7003;39936;51.058;17.220;2024-03-08T19:58:47;0;0;0
54021;PMS7003;39936;51.058;17.220;2024-03-08T20:02:13;2;2;2
54021;PMS7003;39936;51.058;17.220;2024-03-08T20:05:34;4;4;3
54021;PMS7003;39936;51.058;17.220;2024-03-08T20:08:58;2;2;2
54021;PMS7003;39936;51.058;17.220;2024-03-08T20:12:27;7;7;5
54021;PMS7003;39936;51.058;17.220;2024-03-08T20:15:48;3;3;3
54021;PMS7003;39936;51.058;17.220;2024-03-08T20:19:11;3;3;3
54021;PMS7003;39936;51.058;17.220;2024-03-08T20:22:33;1;1;1
54021;PMS7003;39936;51.058;17.220;2024-03-08T20:25:50;10;10;9
54021;PMS7003;39936;51.058;17.220;2024-03-08T20:29:13;7;7;6
54021;PMS7003;39936;51.058;17.220;2024-03-08T20:32:31;13;13;12
54021;PMS7003;39936;51.058;17.220;2024-03-08T20:35:53;4;4;4
54021;PMS7003;39936;51.058;17.220;2024-03-08T20:39:10;1;1;1
54021;PMS7003;39936;51.058;17.220;2024-03-08T20:42:31;8;8;8
54021;PMS7003;39936;51.058;17.220;2024-03-08T20:45:54;3;3;3
54021;PMS7003;39936;51.058;17.220;2024-03-08T20:49:09;5;5;5
54021;PMS7003;39936;51.058;17.220;2024-03-08T20:52:42;10;10;9
54021;PMS7003;39936;51.058;17.220;2024-03-08T20:56:01;9;9;9
54021;PMS7003;39936;51.058;17.220;2024-03-08T20:59:20;8;8;8
54021;PMS7003;39936;51.058;17.220;2024-03-08T21:02:50;17;14;10
54021;PMS7003;39936;51.058;17.220;2024-03-08T21:06:12;12;12;12
54021;PMS7003;39936;51.058;17.220;2024-03-08T21:09:40;24;22;19
54021;PMS7003;39936;51.058;17.220;2024-03-08T21:13:02;9;8;7
54021;PMS7003;39936;51.058;17.220;2024-03-08T21:16:19;8;8;8
54021;PMS7003;39936;51.058;17.220;2024-03-08T21:19:48;8;8;7
54021;PMS7003;39936;51.058;17.220;2024-03-08T21:23:13;8;8;8
54021;PMS7003;39936;51.058;17.220;2024-03-08T21:26:42;7;7;7
54021;PMS7003;39936;51.058;17.220;2024-03-08T21:30:00;5;5;5
54021;PMS7003;39936;51.058;17.220;2024-03-08T21:33:26;8;8;7
54021;PMS7003;39936;51.058;17.220;2024-03-08T21:36:46;7;7;7
54021;PMS7003;39936;51.058;17.220;2024-03-08T21:40:05;6;6;6
54021;PMS7003;39936;51.058;17.220;2024-03-08T21:43:28;13;13;12
54021;PMS7003;39936;51.058;17.220;2024-03-08T21:46:51;15;14;14
54021;PMS7003;39936;51.058;17.220;2024-03-08T21:50:11;6;6;6
54021;PMS7003;39936;51.058;17.220;2024-03-08T21:53:33;15;15;14
54021;PMS7003;39936;51.058;17.220;2024-03-08T21:56:57;28;22;14
54021;PMS7003;39936;51.058;17.220;2024-03-08T22:00:22;15;15;14
54021;PMS7003;39936;51.058;17.220;2024-03-08T22:03:46;22;21;19